sensor_id;sensor_type;location;lat;lon;timestamp;P1;durP1;ratioP1;P2;durP2;ratioP2
28934;SDS011;16044;52.726;-2.108;2023-08-31T00:00:50;11.38;;;3.92;;
28934;SDS011;16044;52.726;-2.108;2023-08-31T00:03:21;8.70;;;4.10;;
28934;SDS011;16044;52.726;-2.108;2023-08-31T00:05:51;14.05;;;3.70;;
28934;SDS011;16044;52.726;-2.108;2023-08-31T00:08:22;10.02;;;3.65;;
28934;SDS011;16044;52.726;-2.108;2023-08-31T00:10:56;13.40;;;4.00;;
28934;SDS011;16044;52.726;-2.108;2023-08-31T00:13:30;6.15;;;3.05;;
28934;SDS011;16044;52.726;-2.108;2023-08-31T00:16:01;7.65;;;3.90;;
28934;SDS011;16044;52.726;-2.108;2023-08-31T00:18:32;10.10;;;3.90;;
28934;SDS011;16044;52.726;-2.108;2023-08-31T00:21:02;6.88;;;3.78;;
28934;SDS011;16044;52.726;-2.108;2023-08-31T00:23:34;6.53;;;3.42;;
28934;SDS011;16044;52.726;-2.108;2023-08-31T00:26:05;8.57;;;3.50;;
28934;SDS011;16044;52.726;-2.108;2023-08-31T00:28:38;9.50;;;3.47;;
28934;SDS011;16044;52.726;-2.108;2023-08-31T00:31:09;7.60;;;3.65;;
28934;SDS011;16044;52.726;-2.108;2023-08-31T00:33:40;11.63;;;3.60;;
28934;SDS011;16044;52.726;-2.108;2023-08-31T00:36:10;7.20;;;3.13;;
28934;SDS011;16044;52.726;-2.108;2023-08-31T00:38:41;8.43;;;3.38;;
28934;SDS011;16044;52.726;-2.108;2023-08-31T00:41:11;8.50;;;3.60;;
28934;SDS011;16044;52.726;-2.108;2023-08-31T00:43:44;12.57;;;3.75;;
28934;SDS011;16044;52.726;-2.108;2023-08-31T00:46:15;9.57;;;3.83;;
28934;SDS011;16044;52.726;-2.108;2023-08-31T00:48:45;9.27;;;3.40;;
28934;SDS011;16044;52.726;-2.108;2023-08-31T00:51:16;14.15;;;3.42;;
28934;SDS011;16044;52.726;-2.108;2023-08-31T00:53:47;8.68;;;3.10;;
28934;SDS011;16044;52.726;-2.108;2023-08-31T00:56:20;6.30;;;3.00;;
28934;SDS011;16044;52.726;-2.108;2023-08-31T00:58:53;8.55;;;3.40;;
28934;SDS011;16044;52.726;-2.108;2023-08-31T01:01:25;9.85;;;3.38;;
28934;SDS011;16044;52.726;-2.108;2023-08-31T01:04:08;5.75;;;3.15;;
28934;SDS011;16044;52.726;-2.108;2023-08-31T01:06:58;8.23;;;3.60;;
28934;SDS011;16044;52.726;-2.108;2023-08-31T01:09:36;12.20;;;3.13;;
28934;SDS011;16044;52.726;-2.108;2023-08-31T01:12:16;9.90;;;3.50;;
28934;SDS011;16044;52.726;-2.108;2023-08-31T01:14:59;9.32;;;2.92;;
28934;SDS011;16044;52.726;-2.108;2023-08-31T01:17:36;9.52;;;3.17;;
28934;SDS011;16044;52.726;-2.108;2023-08-31T01:20:11;7.75;;;3.30;;
28934;SDS011;16044;52.726;-2.108;2023-08-31T01:22:48;9.40;;;3.38;;
28934;SDS011;16044;52.726;-2.108;2023-08-31T01:25:28;9.25;;;3.30;;
28934;SDS011;16044;52.726;-2.108;2023-08-31T01:27:59;10.18;;;3.70;;
28934;SDS011;16044;52.726;-2.108;2023-08-31T01:30:31;7.72;;;3.17;;
28934;SDS011;16044;52.726;-2.108;2023-08-31T01:33:01;10.52;;;3.55;;
28934;SDS011;16044;52.726;-2.108;2023-08-31T01:35:33;7.70;;;3.33;;
28934;SDS011;16044;52.726;-2.108;2023-08-31T01:38:11;9.07;;;3.53;;
28934;SDS011;16044;52.726;-2.108;2023-08-31T01:40:52;7.47;;;3.45;;
28934;SDS011;16044;52.726;-2.108;2023-08-31T01:43:29;8.35;;;3.30;;
28934;SDS011;16044;52.726;-2.108;2023-08-31T01:46:02;9.65;;;3.33;;
28934;SDS011;16044;52.726;-2.108;2023-08-31T01:48:37;8.30;;;3.38;;
28934;SDS011;16044;52.726;-2.108;2023-08-31T01:51:09;9.10;;;3.40;;
28934;SDS011;16044;52.726;-2.108;2023-08-31T01:53:40;7.93;;;3.80;;
28934;SDS011;16044;52.726;-2.108;2023-08-31T01:56:13;11.15;;;3.75;;
28934;SDS011;16044;52.726;-2.108;2023-08-31T01:58:44;9.85;;;3.58;;
28934;SDS011;16044;52.726;-2.108;2023-08-31T02:01:14;7.03;;;2.90;;
28934;SDS011;16044;52.726;-2.108;2023-08-31T02:03:44;10.48;;;3.95;;
28934;SDS011;16044;52.726;-2.108;2023-08-31T02:06:15;9.30;;;3.70;;
28934;SDS011;16044;52.726;-2.108;2023-08-31T02:08:45;11.50;;;3.78;;
28934;SDS011;16044;52.726;-2.108;2023-08-31T02:11:18;10.23;;;4.05;;
28934;SDS011;16044;52.726;-2.108;2023-08-31T02:13:49;10.95;;;3.97;;
28934;SDS011;16044;52.726;-2.108;2023-08-31T02:16:19;9.88;;;3.55;;
28934;SDS011;16044;52.726;-2.108;2023-08-31T02:18:49;9.65;;;3.75;;
28934;SDS011;16044;52.726;-2.108;2023-08-31T02:21:19;5.93;;;3.38;;
28934;SDS011;16044;52.726;-2.108;2023-08-31T02:23:50;7.13;;;3.78;;
28934;SDS011;16044;52.726;-2.108;2023-08-31T02:26:23;10.60;;;3.38;;
28934;SDS011;16044;52.726;-2.108;2023-08-31T02:28:53;7.85;;;3.25;;
28934;SDS011;16044;52.726;-2.108;2023-08-31T02:31:24;12.35;;;3.88;;
28934;SDS011;16044;52.726;-2.108;2023-08-31T02:33:54;6.35;;;3.40;;
28934;SDS011;16044;52.726;-2.108;2023-08-31T02:36:25;9.10;;;3.70;;
28934;SDS011;16044;52.726;-2.108;2023-08-31T02:38:55;7.45;;;3.53;;
28934;SDS011;16044;52.726;-2.108;2023-08-31T02:41:28;13.68;;;4.10;;
28934;SDS011;16044;52.726;-2.108;2023-08-31T02:43:59;7.35;;;3.40;;
28934;SDS011;16044;52.726;-2.108;2023-08-31T02:46:29;10.73;;;4.00;;
28934;SDS011;16044;52.726;-2.108;2023-08-31T02:48:59;9.95;;;4.30;;
28934;SDS011;16044;52.726;-2.108;2023-08-31T02:51:30;12.02;;;4.22;;
28934;SDS011;16044;52.726;-2.108;2023-08-31T02:54:00;8.75;;;3.65;;
28934;SDS011;16044;52.726;-2.108;2023-08-31T02:56:33;11.90;;;4.22;;
28934;SDS011;16044;52.726;-2.108;2023-08-31T02:59:03;8.30;;;3.67;;
28934;SDS011;16044;52.726;-2.108;2023-08-31T03:01:34;6.18;;;3.40;;
28934;SDS011;16044;52.726;-2.108;2023-08-31T03:04:05;11.43;;;4.00;;
28934;SDS011;16044;52.726;-2.108;2023-08-31T03:06:36;11.63;;;4.25;;
28934;SDS011;16044;52.726;-2.108;2023-08-31T03:09:06;7.47;;;3.47;;
28934;SDS011;16044;52.726;-2.108;2023-08-31T03:11:39;6.72;;;3.42;;
28934;SDS011;16044;52.726;-2.108;2023-08-31T03:14:09;8.52;;;3.88;;
28934;SDS011;16044;52.726;-2.108;2023-08-31T03:16:40;8.65;;;3.50;;
28934;SDS011;16044;52.726;-2.108;2023-08-31T03:19:10;9.50;;;3.90;;
28934;SDS011;16044;52.726;-2.108;2023-08-31T03:21:40;8.68;;;3.70;;
28934;SDS011;16044;52.726;-2.108;2023-08-31T03:24:10;11.70;;;4.30;;
28934;SDS011;16044;52.726;-2.108;2023-08-31T03:26:43;10.82;;;4.20;;
28934;SDS011;16044;52.726;-2.108;2023-08-31T03:29:14;8.57;;;3.70;;
28934;SDS011;16044;52.726;-2.108;2023-08-31T03:31:44;6.90;;;3.50;;
28934;SDS011;16044;52.726;-2.108;2023-08-31T03:34:14;10.15;;;4.40;;
28934;SDS011;16044;52.726;-2.108;2023-08-31T03:36:45;11.65;;;4.32;;
28934;SDS011;16044;52.726;-2.108;2023-08-31T03:39:16;10.13;;;3.90;;
28934;SDS011;16044;52.726;-2.108;2023-08-31T03:41:49;9.15;;;4.18;;
28934;SDS011;16044;52.726;-2.108;2023-08-31T03:44:20;9.57;;;4.40;;
28934;SDS011;16044;52.726;-2.108;2023-08-31T03:46:50;9.43;;;4.40;;
28934;SDS011;16044;52.726;-2.108;2023-08-31T03:49:21;15.07;;;4.70;;
28934;SDS011;16044;52.726;-2.108;2023-08-31T03:51:51;7.90;;;4.13;;
28934;SDS011;16044;52.726;-2.108;2023-08-31T03:54:21;9.48;;;4.18;;
28934;SDS011;16044;52.726;-2.108;2023-08-31T03:56:54;10.30;;;4.57;;
28934;SDS011;16044;52.726;-2.108;2023-08-31T03:59:25;10.10;;;4.60;;
28934;SDS011;16044;52.726;-2.108;2023-08-31T04:01:55;9.35;;;4.05;;
28934;SDS011;16044;52.726;-2.108;2023-08-31T04:04:26;9.05;;;4.07;;
28934;SDS011;16044;52.726;-2.108;2023-08-31T04:06:56;9.40;;;3.78;;
28934;SDS011;16044;52.726;-2.108;2023-08-31T04:09:26;10.50;;;4.38;;
28934;SDS011;16044;52.726;-2.108;2023-08-31T04:11:59;8.73;;;4.03;;
28934;SDS011;16044;52.726;-2.108;2023-08-31T04:14:30;10.10;;;4.35;;
28934;SDS011;16044;52.726;-2.108;2023-08-31T04:17:00;9.98;;;4.15;;
28934;SDS011;16044;52.726;-2.108;2023-08-31T04:19:31;9.13;;;4.13;;
28934;SDS011;16044;52.726;-2.108;2023-08-31T04:22:03;11.05;;;3.88;;
28934;SDS011;16044;52.726;-2.108;2023-08-31T04:24:33;10.02;;;4.03;;
28934;SDS011;16044;52.726;-2.108;2023-08-31T04:27:06;11.77;;;4.60;;
28934;SDS011;16044;52.726;-2.108;2023-08-31T04:29:37;8.88;;;3.92;;
28934;SDS011;16044;52.726;-2.108;2023-08-31T04:32:07;10.80;;;4.03;;
28934;SDS011;16044;52.726;-2.108;2023-08-31T04:34:37;7.22;;;3.50;;
28934;SDS011;16044;52.726;-2.108;2023-08-31T04:37:08;10.88;;;4.32;;
28934;SDS011;16044;52.726;-2.108;2023-08-31T04:39:38;8.32;;;3.90;;
28934;SDS011;16044;52.726;-2.108;2023-08-31T04:42:11;8.52;;;4.05;;
28934;SDS011;16044;52.726;-2.108;2023-08-31T04:44:43;11.68;;;4.10;;
28934;SDS011;16044;52.726;-2.108;2023-08-31T04:47:13;8.82;;;4.00;;
28934;SDS011;16044;52.726;-2.108;2023-08-31T04:49:44;10.57;;;4.25;;
28934;SDS011;16044;52.726;-2.108;2023-08-31T04:52:14;11.98;;;4.30;;
28934;SDS011;16044;52.726;-2.108;2023-08-31T04:54:45;7.07;;;3.92;;
28934;SDS011;16044;52.726;-2.108;2023-08-31T04:57:18;7.85;;;3.92;;
28934;SDS011;16044;52.726;-2.108;2023-08-31T04:59:48;8.65;;;3.90;;
28934;SDS011;16044;52.726;-2.108;2023-08-31T05:02:18;8.30;;;3.80;;
28934;SDS011;16044;52.726;-2.108;2023-08-31T05:04:49;8.43;;;3.72;;
28934;SDS011;16044;52.726;-2.108;2023-08-31T05:07:19;9.82;;;4.03;;
28934;SDS011;16044;52.726;-2.108;2023-08-31T05:09:50;7.55;;;3.70;;
28934;SDS011;16044;52.726;-2.108;2023-08-31T05:12:24;8.82;;;4.18;;
28934;SDS011;16044;52.726;-2.108;2023-08-31T05:14:54;7.65;;;3.97;;
28934;SDS011;16044;52.726;-2.108;2023-08-31T05:17:24;7.18;;;4.05;;
28934;SDS011;16044;52.726;-2.108;2023-08-31T05:19:55;7.43;;;4.25;;
28934;SDS011;16044;52.726;-2.108;2023-08-31T05:22:25;10.50;;;3.70;;
28934;SDS011;16044;52.726;-2.108;2023-08-31T05:24:56;10.02;;;4.07;;
28934;SDS011;16044;52.726;-2.108;2023-08-31T05:27:29;9.25;;;3.90;;
28934;SDS011;16044;52.726;-2.108;2023-08-31T05:30:00;8.43;;;3.72;;
28934;SDS011;16044;52.726;-2.108;2023-08-31T05:32:31;7.53;;;3.47;;
28934;SDS011;16044;52.726;-2.108;2023-08-31T05:35:02;8.88;;;3.28;;
28934;SDS011;16044;52.726;-2.108;2023-08-31T05:37:33;7.75;;;4.28;;
28934;SDS011;16044;52.726;-2.108;2023-08-31T05:40:05;10.25;;;3.85;;
28934;SDS011;16044;52.726;-2.108;2023-08-31T05:42:40;8.30;;;3.50;;
28934;SDS011;16044;52.726;-2.108;2023-08-31T05:45:10;8.80;;;3.78;;
28934;SDS011;16044;52.726;-2.108;2023-08-31T05:47:41;8.30;;;3.60;;
28934;SDS011;16044;52.726;-2.108;2023-08-31T05:50:12;6.20;;;3.50;;
28934;SDS011;16044;52.726;-2.108;2023-08-31T05:52:42;7.63;;;3.72;;
28934;SDS011;16044;52.726;-2.108;2023-08-31T05:55:13;7.55;;;3.83;;
28934;SDS011;16044;52.726;-2.108;2023-08-31T05:57:46;10.23;;;3.65;;
28934;SDS011;16044;52.726;-2.108;2023-08-31T06:00:17;10.60;;;4.03;;
28934;SDS011;16044;52.726;-2.108;2023-08-31T06:02:48;7.88;;;3.97;;
28934;SDS011;16044;52.726;-2.108;2023-08-31T06:05:19;7.72;;;3.45;;
28934;SDS011;16044;52.726;-2.108;2023-08-31T06:07:49;10.48;;;3.67;;
28934;SDS011;16044;52.726;-2.108;2023-08-31T06:10:19;6.70;;;3.47;;
28934;SDS011;16044;52.726;-2.108;2023-08-31T06:12:52;13.38;;;4.13;;
28934;SDS011;16044;52.726;-2.108;2023-08-31T06:15:23;7.88;;;3.95;;
28934;SDS011;16044;52.726;-2.108;2023-08-31T06:17:53;9.00;;;3.88;;
28934;SDS011;16044;52.726;-2.108;2023-08-31T06:20:25;9.35;;;3.72;;
28934;SDS011;16044;52.726;-2.108;2023-08-31T06:22:56;9.13;;;4.68;;
28934;SDS011;16044;52.726;-2.108;2023-08-31T06:25:26;10.77;;;3.80;;
28934;SDS011;16044;52.726;-2.108;2023-08-31T06:27:59;10.65;;;4.80;;
28934;SDS011;16044;52.726;-2.108;2023-08-31T06:30:32;11.27;;;5.00;;
28934;SDS011;16044;52.726;-2.108;2023-08-31T06:33:02;21.45;;;4.70;;
28934;SDS011;16044;52.726;-2.108;2023-08-31T06:35:33;17.13;;;5.15;;
28934;SDS011;16044;52.726;-2.108;2023-08-31T06:38:04;20.13;;;5.57;;
28934;SDS011;16044;52.726;-2.108;2023-08-31T06:40:34;14.95;;;5.18;;
28934;SDS011;16044;52.726;-2.108;2023-08-31T06:43:07;10.48;;;4.20;;
28934;SDS011;16044;52.726;-2.108;2023-08-31T06:45:38;9.57;;;4.03;;
28934;SDS011;16044;52.726;-2.108;2023-08-31T06:48:09;10.98;;;4.50;;
28934;SDS011;16044;52.726;-2.108;2023-08-31T06:50:39;10.40;;;4.30;;
28934;SDS011;16044;52.726;-2.108;2023-08-31T06:53:10;9.20;;;4.43;;
28934;SDS011;16044;52.726;-2.108;2023-08-31T06:55:40;10.32;;;4.60;;
28934;SDS011;16044;52.726;-2.108;2023-08-31T06:58:13;12.80;;;4.97;;
28934;SDS011;16044;52.726;-2.108;2023-08-31T07:00:44;13.88;;;4.28;;
28934;SDS011;16044;52.726;-2.108;2023-08-31T07:03:15;11.10;;;4.85;;
28934;SDS011;16044;52.726;-2.108;2023-08-31T07:05:45;10.55;;;4.63;;
28934;SDS011;16044;52.726;-2.108;2023-08-31T07:08:16;14.60;;;3.90;;
28934;SDS011;16044;52.726;-2.108;2023-08-31T07:10:46;8.32;;;4.30;;
28934;SDS011;16044;52.726;-2.108;2023-08-31T07:13:19;13.23;;;4.90;;
28934;SDS011;16044;52.726;-2.108;2023-08-31T07:15:50;10.85;;;4.35;;
28934;SDS011;16044;52.726;-2.108;2023-08-31T07:18:21;12.50;;;4.60;;
28934;SDS011;16044;52.726;-2.108;2023-08-31T07:20:51;10.23;;;4.05;;
28934;SDS011;16044;52.726;-2.108;2023-08-31T07:23:21;10.15;;;4.03;;
28934;SDS011;16044;52.726;-2.108;2023-08-31T07:25:52;8.32;;;3.97;;
28934;SDS011;16044;52.726;-2.108;2023-08-31T07:28:27;10.75;;;3.75;;
28934;SDS011;16044;52.726;-2.108;2023-08-31T07:31:01;10.25;;;4.50;;
28934;SDS011;16044;52.726;-2.108;2023-08-31T07:33:33;15.90;;;5.20;;
28934;SDS011;16044;52.726;-2.108;2023-08-31T07:36:05;11.25;;;4.63;;
28934;SDS011;16044;52.726;-2.108;2023-08-31T07:38:35;12.65;;;4.93;;
28934;SDS011;16044;52.726;-2.108;2023-08-31T07:41:06;16.30;;;5.82;;
28934;SDS011;16044;52.726;-2.108;2023-08-31T07:43:38;14.35;;;6.43;;
28934;SDS011;16044;52.726;-2.108;2023-08-31T07:46:27;17.23;;;7.28;;
28934;SDS011;16044;52.726;-2.108;2023-08-31T07:48:58;16.23;;;7.10;;
28934;SDS011;16044;52.726;-2.108;2023-08-31T07:51:28;16.67;;;7.80;;
28934;SDS011;16044;52.726;-2.108;2023-08-31T07:53:59;14.38;;;8.88;;
28934;SDS011;16044;52.726;-2.108;2023-08-31T07:56:31;22.00;;;11.75;;
28934;SDS011;16044;52.726;-2.108;2023-08-31T07:59:04;21.92;;;10.52;;
28934;SDS011;16044;52.726;-2.108;2023-08-31T08:01:34;20.50;;;10.20;;
28934;SDS011;16044;52.726;-2.108;2023-08-31T08:04:05;20.52;;;9.80;;
28934;SDS011;16044;52.726;-2.108;2023-08-31T08:06:36;19.42;;;9.40;;
28934;SDS011;16044;52.726;-2.108;2023-08-31T08:09:06;17.88;;;8.93;;
28934;SDS011;16044;52.726;-2.108;2023-08-31T08:11:36;17.45;;;8.45;;
28934;SDS011;16044;52.726;-2.108;2023-08-31T08:14:09;11.77;;;7.07;;
28934;SDS011;16044;52.726;-2.108;2023-08-31T08:16:40;17.10;;;7.15;;
28934;SDS011;16044;52.726;-2.108;2023-08-31T08:19:11;13.45;;;6.15;;
28934;SDS011;16044;52.726;-2.108;2023-08-31T08:21:42;12.35;;;5.38;;
28934;SDS011;16044;52.726;-2.108;2023-08-31T08:24:12;12.25;;;4.68;;
28934;SDS011;16044;52.726;-2.108;2023-08-31T08:26:42;14.10;;;4.97;;
28934;SDS011;16044;52.726;-2.108;2023-08-31T08:29:15;10.23;;;4.35;;
28934;SDS011;16044;52.726;-2.108;2023-08-31T08:31:46;11.75;;;4.35;;
28934;SDS011;16044;52.726;-2.108;2023-08-31T08:34:16;15.25;;;4.60;;
28934;SDS011;16044;52.726;-2.108;2023-08-31T08:36:46;9.23;;;4.40;;
28934;SDS011;16044;52.726;-2.108;2023-08-31T08:39:16;11.88;;;4.70;;
28934;SDS011;16044;52.726;-2.108;2023-08-31T08:41:47;12.00;;;4.13;;
28934;SDS011;16044;52.726;-2.108;2023-08-31T08:44:21;9.07;;;3.70;;
28934;SDS011;16044;52.726;-2.108;2023-08-31T08:46:54;11.05;;;3.72;;
28934;SDS011;16044;52.726;-2.108;2023-08-31T08:49:27;9.90;;;3.40;;
28934;SDS011;16044;52.726;-2.108;2023-08-31T08:52:02;11.25;;;3.65;;
28934;SDS011;16044;52.726;-2.108;2023-08-31T08:54:33;9.50;;;3.38;;
28934;SDS011;16044;52.726;-2.108;2023-08-31T08:57:06;8.68;;;3.58;;
28934;SDS011;16044;52.726;-2.108;2023-08-31T08:59:39;8.82;;;3.10;;
28934;SDS011;16044;52.726;-2.108;2023-08-31T09:02:10;6.35;;;3.25;;
28934;SDS011;16044;52.726;-2.108;2023-08-31T09:04:41;10.10;;;3.22;;
28934;SDS011;16044;52.726;-2.108;2023-08-31T09:07:11;8.95;;;3.22;;
28934;SDS011;16044;52.726;-2.108;2023-08-31T09:09:48;9.98;;;2.90;;
28934;SDS011;16044;52.726;-2.108;2023-08-31T09:12:21;10.30;;;3.22;;
28934;SDS011;16044;52.726;-2.108;2023-08-31T09:15:02;9.88;;;2.85;;
28934;SDS011;16044;52.726;-2.108;2023-08-31T09:17:37;11.15;;;3.20;;
28934;SDS011;16044;52.726;-2.108;2023-08-31T09:20:11;8.25;;;2.42;;
28934;SDS011;16044;52.726;-2.108;2023-08-31T09:22:42;8.40;;;2.92;;
28934;SDS011;16044;52.726;-2.108;2023-08-31T09:25:13;7.30;;;2.40;;
28934;SDS011;16044;52.726;-2.108;2023-08-31T09:27:43;5.43;;;1.85;;
28934;SDS011;16044;52.726;-2.108;2023-08-31T09:30:17;5.63;;;2.05;;
28934;SDS011;16044;52.726;-2.108;2023-08-31T09:32:51;6.88;;;1.83;;
28934;SDS011;16044;52.726;-2.108;2023-08-31T09:35:23;6.40;;;1.98;;
28934;SDS011;16044;52.726;-2.108;2023-08-31T09:37:57;8.32;;;1.95;;
28934;SDS011;16044;52.726;-2.108;2023-08-31T09:40:29;6.03;;;1.85;;
28934;SDS011;16044;52.726;-2.108;2023-08-31T09:42:59;7.40;;;1.83;;
28934;SDS011;16044;52.726;-2.108;2023-08-31T09:45:32;7.47;;;2.00;;
28934;SDS011;16044;52.726;-2.108;2023-08-31T09:48:12;6.22;;;2.00;;
28934;SDS011;16044;52.726;-2.108;2023-08-31T09:50:45;10.23;;;2.15;;
28934;SDS011;16044;52.726;-2.108;2023-08-31T09:53:16;6.03;;;1.83;;
28934;SDS011;16044;52.726;-2.108;2023-08-31T09:55:47;6.78;;;2.05;;
28934;SDS011;16044;52.726;-2.108;2023-08-31T09:58:19;5.72;;;1.65;;
28934;SDS011;16044;52.726;-2.108;2023-08-31T10:00:53;6.03;;;1.50;;
28934;SDS011;16044;52.726;-2.108;2023-08-31T10:03:24;6.15;;;1.77;;
28934;SDS011;16044;52.726;-2.108;2023-08-31T10:05:56;5.28;;;1.92;;
28934;SDS011;16044;52.726;-2.108;2023-08-31T10:08:28;7.35;;;2.00;;
28934;SDS011;16044;52.726;-2.108;2023-08-31T10:11:00;7.82;;;2.35;;
28934;SDS011;16044;52.726;-2.108;2023-08-31T10:13:33;4.35;;;1.70;;
28934;SDS011;16044;52.726;-2.108;2023-08-31T10:16:09;8.05;;;2.10;;
28934;SDS011;16044;52.726;-2.108;2023-08-31T10:21:12;6.28;;;2.40;;
28934;SDS011;16044;52.726;-2.108;2023-08-31T10:23:46;6.40;;;2.13;;
28934;SDS011;16044;52.726;-2.108;2023-08-31T10:26:23;9.23;;;2.10;;
28934;SDS011;16044;52.726;-2.108;2023-08-31T10:28:56;8.57;;;2.13;;
28934;SDS011;16044;52.726;-2.108;2023-08-31T10:31:35;5.18;;;1.70;;
28934;SDS011;16044;52.726;-2.108;2023-08-31T10:34:05;6.97;;;2.08;;
28934;SDS011;16044;52.726;-2.108;2023-08-31T10:36:37;9.20;;;2.25;;
28934;SDS011;16044;52.726;-2.108;2023-08-31T10:39:11;7.38;;;1.75;;
28934;SDS011;16044;52.726;-2.108;2023-08-31T10:41:51;5.63;;;1.98;;
28934;SDS011;16044;52.726;-2.108;2023-08-31T10:44:23;4.72;;;1.92;;
28934;SDS011;16044;52.726;-2.108;2023-08-31T10:46:59;8.55;;;2.47;;
28934;SDS011;16044;52.726;-2.108;2023-08-31T10:49:32;7.13;;;1.90;;
28934;SDS011;16044;52.726;-2.108;2023-08-31T10:52:16;5.85;;;2.20;;
28934;SDS011;16044;52.726;-2.108;2023-08-31T10:55:06;7.18;;;2.30;;
28934;SDS011;16044;52.726;-2.108;2023-08-31T10:57:37;7.97;;;2.40;;
28934;SDS011;16044;52.726;-2.108;2023-08-31T11:00:09;7.18;;;2.60;;
28934;SDS011;16044;52.726;-2.108;2023-08-31T11:02:44;7.07;;;2.22;;
28934;SDS011;16044;52.726;-2.108;2023-08-31T11:05:15;7.72;;;2.28;;
28934;SDS011;16044;52.726;-2.108;2023-08-31T11:07:50;7.78;;;2.28;;
28934;SDS011;16044;52.726;-2.108;2023-08-31T11:10:23;7.30;;;2.33;;
28934;SDS011;16044;52.726;-2.108;2023-08-31T11:12:56;7.20;;;2.50;;
28934;SDS011;16044;52.726;-2.108;2023-08-31T11:15:27;6.28;;;2.40;;
28934;SDS011;16044;52.726;-2.108;2023-08-31T11:18:01;5.30;;;2.33;;
28934;SDS011;16044;52.726;-2.108;2023-08-31T11:20:32;7.03;;;2.05;;
28934;SDS011;16044;52.726;-2.108;2023-08-31T11:23:03;5.00;;;2.10;;
28934;SDS011;16044;52.726;-2.108;2023-08-31T11:25:34;7.28;;;2.17;;
28934;SDS011;16044;52.726;-2.108;2023-08-31T11:28:06;4.97;;;2.20;;
28934;SDS011;16044;52.726;-2.108;2023-08-31T11:30:37;6.68;;;2.33;;
28934;SDS011;16044;52.726;-2.108;2023-08-31T11:33:12;9.43;;;2.42;;
28934;SDS011;16044;52.726;-2.108;2023-08-31T11:35:43;9.07;;;2.22;;
28934;SDS011;16044;52.726;-2.108;2023-08-31T11:38:14;7.53;;;2.53;;
28934;SDS011;16044;52.726;-2.108;2023-08-31T11:40:44;6.50;;;2.50;;
28934;SDS011;16044;52.726;-2.108;2023-08-31T11:43:18;7.10;;;2.38;;
28934;SDS011;16044;52.726;-2.108;2023-08-31T11:45:49;5.85;;;2.38;;
28934;SDS011;16044;52.726;-2.108;2023-08-31T11:48:23;7.80;;;2.13;;
28934;SDS011;16044;52.726;-2.108;2023-08-31T11:50:54;3.53;;;1.85;;
28934;SDS011;16044;52.726;-2.108;2023-08-31T11:53:25;4.75;;;1.73;;
28934;SDS011;16044;52.726;-2.108;2023-08-31T11:55:56;4.75;;;1.77;;
28934;SDS011;16044;52.726;-2.108;2023-08-31T11:58:27;6.45;;;2.00;;
28934;SDS011;16044;52.726;-2.108;2023-08-31T12:00:58;6.70;;;2.38;;
28934;SDS011;16044;52.726;-2.108;2023-08-31T12:03:41;5.07;;;2.08;;
28934;SDS011;16044;52.726;-2.108;2023-08-31T12:06:16;6.60;;;2.40;;
28934;SDS011;16044;52.726;-2.108;2023-08-31T12:08:47;4.70;;;1.95;;
28934;SDS011;16044;52.726;-2.108;2023-08-31T12:11:19;6.32;;;2.42;;
28934;SDS011;16044;52.726;-2.108;2023-08-31T12:13:50;5.05;;;2.20;;
28934;SDS011;16044;52.726;-2.108;2023-08-31T12:16:20;7.60;;;2.28;;
28934;SDS011;16044;52.726;-2.108;2023-08-31T12:18:53;8.50;;;2.38;;
28934;SDS011;16044;52.726;-2.108;2023-08-31T12:21:28;5.18;;;2.33;;
28934;SDS011;16044;52.726;-2.108;2023-08-31T12:23:59;7.15;;;2.42;;
28934;SDS011;16044;52.726;-2.108;2023-08-31T12:26:30;5.25;;;2.20;;
28934;SDS011;16044;52.726;-2.108;2023-08-31T12:29:00;6.70;;;2.15;;
28934;SDS011;16044;52.726;-2.108;2023-08-31T12:31:31;6.18;;;2.78;;
28934;SDS011;16044;52.726;-2.108;2023-08-31T12:34:08;5.68;;;2.38;;
28934;SDS011;16044;52.726;-2.108;2023-08-31T12:36:38;10.27;;;2.65;;
28934;SDS011;16044;52.726;-2.108;2023-08-31T12:39:10;6.78;;;2.83;;
28934;SDS011;16044;52.726;-2.108;2023-08-31T12:41:40;7.60;;;2.60;;
28934;SDS011;16044;52.726;-2.108;2023-08-31T12:44:10;6.55;;;2.65;;
28934;SDS011;16044;52.726;-2.108;2023-08-31T12:46:41;10.05;;;2.92;;
28934;SDS011;16044;52.726;-2.108;2023-08-31T12:49:14;6.38;;;2.58;;
28934;SDS011;16044;52.726;-2.108;2023-08-31T12:51:46;10.50;;;2.90;;
28934;SDS011;16044;52.726;-2.108;2023-08-31T12:54:17;6.55;;;2.83;;
28934;SDS011;16044;52.726;-2.108;2023-08-31T12:56:48;5.43;;;2.47;;
28934;SDS011;16044;52.726;-2.108;2023-08-31T12:59:18;8.82;;;2.55;;
28934;SDS011;16044;52.726;-2.108;2023-08-31T13:01:48;7.55;;;2.38;;
28934;SDS011;16044;52.726;-2.108;2023-08-31T13:04:23;9.10;;;2.70;;
28934;SDS011;16044;52.726;-2.108;2023-08-31T13:06:54;6.35;;;2.67;;
28934;SDS011;16044;52.726;-2.108;2023-08-31T13:09:24;6.03;;;2.80;;
28934;SDS011;16044;52.726;-2.108;2023-08-31T13:11:54;6.53;;;3.17;;
28934;SDS011;16044;52.726;-2.108;2023-08-31T13:14:25;9.85;;;3.20;;
28934;SDS011;16044;52.726;-2.108;2023-08-31T13:16:55;6.75;;;3.30;;
28934;SDS011;16044;52.726;-2.108;2023-08-31T13:19:28;8.68;;;3.25;;
28934;SDS011;16044;52.726;-2.108;2023-08-31T13:21:58;7.10;;;2.33;;
28934;SDS011;16044;52.726;-2.108;2023-08-31T13:24:29;5.63;;;2.60;;
28934;SDS011;16044;52.726;-2.108;2023-08-31T13:26:59;5.95;;;1.85;;
28934;SDS011;16044;52.726;-2.108;2023-08-31T13:29:30;4.50;;;2.05;;
28934;SDS011;16044;52.726;-2.108;2023-08-31T13:32:00;7.47;;;2.40;;
28934;SDS011;16044;52.726;-2.108;2023-08-31T13:34:34;5.35;;;2.28;;
28934;SDS011;16044;52.726;-2.108;2023-08-31T13:37:05;6.22;;;2.50;;
28934;SDS011;16044;52.726;-2.108;2023-08-31T13:39:36;4.35;;;2.25;;
28934;SDS011;16044;52.726;-2.108;2023-08-31T13:42:07;5.38;;;1.92;;
28934;SDS011;16044;52.726;-2.108;2023-08-31T13:44:37;6.18;;;2.40;;
28934;SDS011;16044;52.726;-2.108;2023-08-31T13:47:07;9.27;;;2.70;;
28934;SDS011;16044;52.726;-2.108;2023-08-31T13:49:40;5.72;;;2.63;;
28934;SDS011;16044;52.726;-2.108;2023-08-31T13:52:11;4.28;;;2.00;;
28934;SDS011;16044;52.726;-2.108;2023-08-31T13:54:41;6.18;;;2.30;;
28934;SDS011;16044;52.726;-2.108;2023-08-31T13:57:12;5.03;;;2.72;;
28934;SDS011;16044;52.726;-2.108;2023-08-31T13:59:44;8.30;;;2.70;;
28934;SDS011;16044;52.726;-2.108;2023-08-31T14:02:14;6.07;;;3.08;;
28934;SDS011;16044;52.726;-2.108;2023-08-31T14:04:47;5.03;;;2.60;;
28934;SDS011;16044;52.726;-2.108;2023-08-31T14:07:18;5.63;;;2.95;;
28934;SDS011;16044;52.726;-2.108;2023-08-31T14:09:48;5.25;;;2.50;;
28934;SDS011;16044;52.726;-2.108;2023-08-31T14:12:18;5.28;;;2.05;;
28934;SDS011;16044;52.726;-2.108;2023-08-31T14:14:49;8.00;;;3.70;;
28934;SDS011;16044;52.726;-2.108;2023-08-31T14:17:19;8.23;;;4.22;;
28934;SDS011;16044;52.726;-2.108;2023-08-31T14:19:52;5.65;;;3.00;;
28934;SDS011;16044;52.726;-2.108;2023-08-31T14:22:22;12.15;;;5.93;;
28934;SDS011;16044;52.726;-2.108;2023-08-31T14:24:53;6.57;;;3.47;;
28934;SDS011;16044;52.726;-2.108;2023-08-31T14:27:24;12.60;;;6.63;;
28934;SDS011;16044;52.726;-2.108;2023-08-31T14:29:54;7.82;;;3.50;;
28934;SDS011;16044;52.726;-2.108;2023-08-31T14:32:25;8.68;;;3.20;;
28934;SDS011;16044;52.726;-2.108;2023-08-31T14:34:58;6.95;;;3.40;;
28934;SDS011;16044;52.726;-2.108;2023-08-31T14:37:30;8.90;;;3.20;;
28934;SDS011;16044;52.726;-2.108;2023-08-31T14:40:01;5.50;;;2.90;;
28934;SDS011;16044;52.726;-2.108;2023-08-31T14:42:33;5.90;;;2.55;;
28934;SDS011;16044;52.726;-2.108;2023-08-31T14:45:05;6.47;;;2.80;;
28934;SDS011;16044;52.726;-2.108;2023-08-31T14:47:37;4.97;;;2.50;;
28934;SDS011;16044;52.726;-2.108;2023-08-31T14:50:10;6.35;;;3.72;;
28934;SDS011;16044;52.726;-2.108;2023-08-31T14:52:41;7.45;;;3.92;;
28934;SDS011;16044;52.726;-2.108;2023-08-31T14:55:11;7.45;;;3.42;;
28934;SDS011;16044;52.726;-2.108;2023-08-31T14:57:41;6.35;;;2.78;;
28934;SDS011;16044;52.726;-2.108;2023-08-31T15:00:12;7.18;;;2.97;;